Time;durP1;ratioP1;P1;durP2;ratioP2;P2;SDS_P1;SDS_P2;PMS_P1;PMS_P2;Temp;Humidity;BMP_temperature;BMP_pressure;BME280_temperature;BME280_humidity;BME280_pressure;Samples;Min_cycle;Max_cycle;Signal;HPM_P1;HPM_P2
2022/07/08 00:01:29;;;;;;;1.60;0.93;;;17.80;92.40;;;;;;5038099;28;20041;-79
2022/07/08 00:03:54;;;;;;;1.42;0.95;;;17.80;92.70;;;;;;5053924;28;20025;-78
2022/07/08 00:06:20;;;;;;;3.28;0.90;;;17.80;92.40;;;;;;5051587;28;20082;-78
2022/07/08 00:08:46;;;;;;;3.60;0.98;;;17.80;92.40;;;;;;5060802;28;20380;-78
2022/07/08 00:11:11;;;;;;;2.75;0.77;;;17.80;92.50;;;;;;5043378;28;20392;-78
2022/07/08 00:13:37;;;;;;;2.92;0.90;;;17.80;92.50;;;;;;5041489;28;20032;-78
2022/07/08 00:16:03;;;;;;;2.30;0.90;;;17.80;92.60;;;;;;5056584;28;20032;-78
2022/07/08 00:18:29;;;;;;;1.17;0.85;;;17.80;92.50;;;;;;5058722;28;20074;-79
2022/07/08 00:20:54;;;;;;;2.97;0.80;;;17.80;92.50;;;;;;5039875;28;20025;-77
2022/07/08 00:23:20;;;;;;;2.22;0.60;;;17.80;92.50;;;;;;5043062;28;20033;-79
2022/07/08 00:25:46;;;;;;;2.15;0.60;;;17.80;92.60;;;;;;5058304;28;20029;-78
2022/07/08 00:28:11;;;;;;;1.88;0.80;;;17.80;92.70;;;;;;5077984;28;20036;-79
2022/07/08 00:30:37;;;;;;;1.70;0.73;;;17.80;92.80;;;;;;5052911;28;20034;-78
2022/07/08 00:33:03;;;;;;;1.83;0.85;;;17.70;92.90;;;;;;5060839;28;20021;-79
2022/07/08 00:35:28;;;;;;;1.98;0.90;;;17.70;92.80;;;;;;5060834;28;20036;-78
2022/07/08 00:37:54;;;;;;;2.22;0.85;;;17.60;92.80;;;;;;5032700;28;20438;-79
2022/07/08 00:40:20;;;;;;;1.80;1.08;;;17.60;92.90;;;;;;5038139;28;20044;-79
2022/07/08 00:42:49;;;;;;;10.40;1.60;;;17.50;93.00;;;;;;5043844;28;20028;-79
2022/07/08 00:45:16;;;;;;;5.32;1.33;;;17.40;92.60;;;;;;5059235;28;20477;-79
2022/07/08 00:47:41;;;;;;;10.85;2.03;;;17.30;92.60;;;;;;5068042;28;20035;-79
2022/07/08 00:50:09;;;;;;;6.28;1.60;;;17.40;92.60;;;;;;5064403;28;20021;-79
2022/07/08 00:52:35;;;;;;;3.38;1.50;;;17.30;92.40;;;;;;5065268;28;20020;-78
2022/07/08 00:55:02;;;;;;;8.80;1.60;;;17.20;92.20;;;;;;5053114;28;20378;-79
2022/07/08 00:57:28;;;;;;;7.18;2.25;;;17.20;92.20;;;;;;5062200;28;20040;-79
2022/07/08 00:59:54;;;;;;;6.07;1.85;;;17.20;92.10;;;;;;5062367;28;20046;-79
2022/07/08 01:02:20;;;;;;;5.22;1.60;;;17.00;92.00;;;;;;5042708;28;20032;-79
2022/07/08 01:04:46;;;;;;;9.38;1.92;;;17.00;91.60;;;;;;5044972;28;20029;-79
2022/07/08 01:07:12;;;;;;;6.53;1.70;;;16.90;91.50;;;;;;5042761;28;20060;-79
2022/07/08 01:09:37;;;;;;;5.15;1.58;;;16.80;91.50;;;;;;5061503;28;20044;-77
2022/07/08 01:12:04;;;;;;;7.22;1.75;;;16.70;91.40;;;;;;5058570;28;20400;-78
2022/07/08 01:14:30;;;;;;;4.20;1.27;;;16.60;91.30;;;;;;5057467;28;20032;-78
2022/07/08 01:16:56;;;;;;;6.40;1.95;;;16.50;91.40;;;;;;5051137;28;20031;-78
2022/07/08 01:19:21;;;;;;;6.55;1.65;;;16.50;91.40;;;;;;5056426;28;20025;-78
2022/07/08 01:21:47;;;;;;;6.25;1.73;;;16.40;91.30;;;;;;5060443;28;20013;-78
2022/07/08 01:24:13;;;;;;;5.45;1.38;;;16.40;91.40;;;;;;5035141;28;20363;-78
2022/07/08 01:26:38;;;;;;;5.78;1.70;;;16.30;91.50;;;;;;5068298;28;20478;-78
2022/07/08 01:29:04;;;;;;;9.70;2.10;;;16.30;91.50;;;;;;5045651;28;20033;-77
2022/07/08 01:31:41;;;;;;;5.20;1.77;;;16.40;91.50;;;;;;5058796;28;20024;-77
2022/07/08 01:34:07;;;;;;;6.00;1.65;;;16.40;91.40;;;;;;5040136;28;20029;-78
2022/07/08 01:36:32;;;;;;;7.75;1.98;;;16.30;91.30;;;;;;5051441;28;20029;-78
2022/07/08 01:38:58;;;;;;;5.63;1.80;;;16.40;91.10;;;;;;5056820;28;20032;-78
2022/07/08 01:41:24;;;;;;;6.50;2.13;;;16.30;90.80;;;;;;5051463;28;20115;-78
2022/07/08 01:43:50;;;;;;;6.78;2.13;;;16.30;90.30;;;;;;5056602;28;20037;-78
2022/07/08 01:46:16;;;;;;;8.15;2.83;;;16.30;90.30;;;;;;5040824;28;20496;-78
2022/07/08 01:48:41;;;;;;;7.95;2.72;;;16.30;90.10;;;;;;5053778;28;20067;-78
2022/07/08 01:51:07;;;;;;;9.20;2.70;;;16.20;89.90;;;;;;5036943;28;20025;-78
2022/07/08 01:53:33;;;;;;;10.60;3.40;;;16.10;89.90;;;;;;5055036;28;20025;-78
2022/07/08 01:55:58;;;;;;;5.70;2.50;;;16.10;89.80;;;;;;5060182;28;20021;-78
2022/07/08 01:58:24;;;;;;;7.70;3.95;;;16.10;90.00;;;;;;5053944;28;20439;-78
2022/07/08 02:00:50;;;;;;;8.73;2.75;;;16.10;89.80;;;;;;5048502;28;20423;-79
2022/07/08 02:03:15;;;;;;;5.10;2.65;;;16.00;89.30;;;;;;5069037;28;20037;-78
2022/07/08 02:05:41;;;;;;;6.70;2.80;;;16.00;89.20;;;;;;5037133;28;20389;-79
2022/07/08 02:08:07;;;;;;;8.52;2.72;;;16.00;89.00;;;;;;5054173;28;20028;-77
2022/07/08 02:12:18;;;;;;;10.23;3.33;;;16.00;88.90;;;;;;5056009;28;20025;-77
2022/07/08 02:13:19;;;;;;;8.75;2.53;;;16.00;88.70;;;;;;5052372;28;20064;-78
2022/07/08 02:15:45;;;;;;;11.38;3.08;;;16.00;88.50;;;;;;5056204;28;20021;-78
2022/07/08 02:18:11;;;;;;;3.53;2.47;;;15.90;88.30;;;;;;5034717;28;20168;-79
2022/07/08 02:20:37;;;;;;;4.47;2.53;;;15.90;88.40;;;;;;5052140;28;20065;-77
2022/07/08 02:23:03;;;;;;;8.32;2.97;;;15.90;88.60;;;;;;5038855;28;20050;-78
2022/07/08 02:25:29;;;;;;;8.23;2.33;;;15.80;88.40;;;;;;5061434;28;20028;-79
2022/07/08 02:27:54;;;;;;;5.43;2.70;;;15.80;88.30;;;;;;5037202;28;20029;-78
2022/07/08 02:30:20;;;;;;;7.32;2.30;;;15.80;88.00;;;;;;5050716;28;20029;-78
2022/07/08 02:32:46;;;;;;;12.82;2.38;;;15.90;88.30;;;;;;5040173;28;20062;-78
2022/07/08 02:35:12;;;;;;;12.73;2.88;;;15.80;88.20;;;;;;5055909;28;20032;-78
2022/07/08 02:37:37;;;;;;;5.95;2.17;;;15.80;88.30;;;;;;5059865;28;20024;-78
2022/07/08 02:40:04;;;;;;;6.38;2.40;;;15.70;88.40;;;;;;5052945;28;20021;-78
2022/07/08 02:42:29;;;;;;;5.88;2.72;;;15.70;88.50;;;;;;5055904;28;20033;-78
2022/07/08 02:44:55;;;;;;;7.57;2.45;;;15.70;88.80;;;;;;5058840;28;20028;-78
2022/07/08 02:47:21;;;;;;;5.82;2.40;;;15.70;88.80;;;;;;5053870;28;20040;-78
2022/07/08 02:49:47;;;;;;;5.97;2.25;;;15.70;89.00;;;;;;5036760;28;20051;-78
2022/07/08 02:52:12;;;;;;;7.18;1.92;;;15.70;89.00;;;;;;5062317;28;20021;-79
2022/07/08 02:54:38;;;;;;;8.30;1.90;;;15.70;88.90;;;;;;5038871;28;20021;-79
2022/07/08 02:57:04;;;;;;;7.57;2.13;;;15.70;89.00;;;;;;5051387;28;20037;-79
2022/07/08 02:59:30;;;;;;;8.55;2.70;;;15.70;89.20;;;;;;5056624;28;20025;-78
2022/07/08 03:01:55;;;;;;;7.30;1.98;;;15.70;89.30;;;;;;5041502;28;20607;-78
2022/07/08 03:04:21;;;;;;;6.85;2.28;;;15.70;89.40;;;;;;5035877;28;20490;-78
2022/07/08 03:06:47;;;;;;;5.47;2.40;;;15.70;89.30;;;;;;5052866;28;20029;-78
2022/07/08 03:09:12;;;;;;;9.45;2.30;;;15.70;89.20;;;;;;5051607;28;20093;-78
2022/07/08 03:11:38;;;;;;;6.30;1.60;;;15.70;89.40;;;;;;5061293;28;20026;-78
2022/07/08 03:14:04;;;;;;;6.88;2.17;;;15.70;89.50;;;;;;5053770;28;20557;-78
2022/07/08 03:16:29;;;;;;;7.43;2.00;;;15.60;89.50;;;;;;5055109;28;20029;-78
2022/07/08 03:18:55;;;;;;;7.93;2.33;;;15.60;89.70;;;;;;5057826;28;20067;-78
2022/07/08 03:21:21;;;;;;;5.97;2.00;;;15.60;89.80;;;;;;5057844;28;20625;-78
2022/07/08 03:23:46;;;;;;;13.43;2.45;;;15.60;89.90;;;;;;5039485;28;20029;-78
2022/07/08 03:26:12;;;;;;;6.18;1.70;;;15.60;90.00;;;;;;5038809;28;20029;-78
2022/07/08 03:28:37;;;;;;;8.30;2.10;;;15.50;90.00;;;;;;5038810;28;20103;-78
2022/07/08 03:31:03;;;;;;;8.13;1.95;;;15.50;90.10;;;;;;5053175;28;20513;-77
2022/07/08 03:33:29;;;;;;;8.38;2.00;;;15.50;90.20;;;;;;5039559;28;20021;-78
2022/07/08 03:35:54;;;;;;;8.13;2.40;;;15.50;90.20;;;;;;5057697;28;20021;-79
2022/07/08 03:38:20;;;;;;;8.93;2.80;;;15.40;90.20;;;;;;5057213;28;20029;-78
2022/07/08 03:43:30;;;;;;;;;;;15.40;90.40;;;;;;5057724;28;20032;-78
2022/07/08 03:45:56;;;;;;;10.45;2.25;;;15.40;90.60;;;;;;5057189;28;20381;-79
2022/07/08 03:48:21;;;;;;;6.38;2.08;;;15.40;90.50;;;;;;5057214;28;20017;-79
2022/07/08 03:50:47;;;;;;;5.57;1.75;;;15.40;90.60;;;;;;5044037;28;20072;-78
2022/07/08 03:53:13;;;;;;;12.55;2.67;;;15.40;90.60;;;;;;5024563;28;20527;-78
2022/07/08 03:55:38;;;;;;;8.18;2.38;;;15.40;90.60;;;;;;5075917;28;20069;-78
2022/07/08 03:58:04;;;;;;;11.10;2.60;;;15.40;90.50;;;;;;5045230;28;20472;-78
2022/07/08 04:00:30;;;;;;;8.98;2.10;;;15.40;90.50;;;;;;5054277;28;20480;-77
2022/07/08 04:02:55;;;;;;;7.75;2.03;;;15.40;90.60;;;;;;5037724;28;20021;-78
2022/07/08 04:05:21;;;;;;;9.15;2.42;;;15.40;90.60;;;;;;5054133;28;20040;-78
2022/07/08 04:07:47;;;;;;;8.48;2.38;;;15.40;90.60;;;;;;5045897;28;20135;-78
2022/07/08 04:10:12;;;;;;;6.47;2.17;;;15.40;90.60;;;;;;5037115;28;20032;-78
2022/07/08 04:12:38;;;;;;;6.85;2.10;;;15.40;90.60;;;;;;5056358;28;20035;-77
2022/07/08 04:15:04;;;;;;;11.68;2.90;;;15.40;90.70;;;;;;5056580;28;20032;-77
2022/07/08 04:17:30;;;;;;;5.22;2.03;;;15.40;90.60;;;;;;5057302;28;20033;-79
2022/07/08 04:19:55;;;;;;;6.35;2.20;;;15.40;90.50;;;;;;5056871;28;20649;-79
2022/07/08 04:22:21;;;;;;;5.32;2.08;;;15.40;90.50;;;;;;5038131;28;20064;-78
2022/07/08 04:24:46;;;;;;;11.88;2.50;;;15.40;90.50;;;;;;5056664;28;20029;-78
2022/07/08 04:27:12;;;;;;;5.65;1.77;;;15.40;90.60;;;;;;5056887;28;20050;-77
2022/07/08 04:29:38;;;;;;;7.40;2.15;;;15.40;90.50;;;;;;5057050;28;20033;-79
2022/07/08 04:32:04;;;;;;;8.13;2.30;;;15.40;90.50;;;;;;5058178;28;20060;-78
2022/07/08 04:34:29;;;;;;;7.85;2.72;;;15.40;90.50;;;;;;5058934;28;20028;-79
2022/07/08 04:36:55;;;;;;;7.40;2.22;;;15.30;90.50;;;;;;5040599;28;20021;-77
2022/07/08 04:39:21;;;;;;;9.65;2.20;;;15.30;90.60;;;;;;5057664;28;20080;-78
2022/07/08 04:41:46;;;;;;;5.88;2.25;;;15.30;90.70;;;;;;5057196;28;20047;-77
2022/07/08 04:44:12;;;;;;;10.65;2.13;;;15.40;90.70;;;;;;5057259;28;20028;-78
2022/07/08 04:46:38;;;;;;;5.47;2.30;;;15.40;90.70;;;;;;5039153;28;20116;-78
2022/07/08 04:49:03;;;;;;;10.68;2.38;;;15.40;90.50;;;;;;5056259;28;20469;-77
2022/07/08 04:51:29;;;;;;;8.00;1.92;;;15.40;90.50;;;;;;5037949;28;20025;-77
2022/07/08 04:53:55;;;;;;;9.48;2.10;;;15.40;90.60;;;;;;5066391;28;20453;-77
2022/07/08 04:56:20;;;;;;;8.68;1.98;;;15.30;90.70;;;;;;5074894;28;20048;-79
2022/07/08 04:58:46;;;;;;;8.85;1.88;;;15.30;90.70;;;;;;5056479;28;20052;-68
2022/07/08 05:01:13;;;;;;;8.93;2.67;;;15.40;90.70;;;;;;5038717;28;20130;-68
2022/07/08 05:03:39;;;;;;;9.38;2.40;;;15.50;91.10;;;;;;5050443;28;20033;-69
2022/07/08 05:06:05;;;;;;;6.47;1.98;;;15.50;90.60;;;;;;5048540;28;20025;-68
2022/07/08 05:08:31;;;;;;;5.45;2.13;;;15.50;90.40;;;;;;5050397;28;20031;-68
2022/07/08 05:10:56;;;;;;;9.23;1.85;;;15.50;90.50;;;;;;5052017;28;20021;-68
2022/07/08 05:13:22;;;;;;;6.47;2.25;;;15.50;90.50;;;;;;5047998;28;20082;-69
2022/07/08 05:15:48;;;;;;;7.80;2.55;;;15.50;90.30;;;;;;5052823;28;20048;-69
2022/07/08 05:18:14;;;;;;;9.90;1.88;;;15.50;90.30;;;;;;5056319;28;20032;-69
2022/07/08 05:20:39;;;;;;;16.05;1.98;;;15.60;90.20;;;;;;5049749;28;20020;-69
2022/07/08 05:23:05;;;;;;;7.00;2.05;;;15.80;90.30;;;;;;5058734;28;20366;-69
2022/07/08 05:25:30;;;;;;;12.68;2.28;;;15.90;90.10;;;;;;5046376;28;20049;-69
2022/07/08 05:27:56;;;;;;;8.27;1.70;;;16.00;89.90;;;;;;5038542;28;20056;-78
2022/07/08 05:30:22;;;;;;;6.57;1.88;;;16.00;89.70;;;;;;5058128;28;20040;-78
2022/07/08 05:32:48;;;;;;;6.68;1.85;;;16.10;89.00;;;;;;5056983;28;20449;-79
2022/07/08 05:35:13;;;;;;;7.80;1.73;;;16.30;88.80;;;;;;5040290;28;20024;-79
2022/07/08 05:37:40;;;;;;;5.95;2.17;;;16.40;88.30;;;;;;5052784;28;20450;-79
2022/07/08 05:40:07;;;;;;;6.65;2.17;;;16.50;88.20;;;;;;5051803;28;20292;-78
2022/07/08 05:42:33;;;;;;;4.97;1.73;;;16.70;88.40;;;;;;5038650;28;20092;-77
2022/07/08 05:44:59;;;;;;;5.75;2.40;;;16.90;87.90;;;;;;5039389;28;20057;-79
2022/07/08 05:47:25;;;;;;;8.43;2.13;;;17.10;87.00;;;;;;5057044;28;20032;-79
2022/07/08 05:49:50;;;;;;;7.55;1.73;;;17.30;86.30;;;;;;5065542;28;20024;-78
2022/07/08 05:52:16;;;;;;;5.30;1.73;;;17.40;85.20;;;;;;5056317;28;20025;-78
2022/07/08 05:54:48;;;;;;;9.68;2.05;;;17.60;84.60;;;;;;5055092;28;20477;-77
2022/07/08 05:57:15;;;;;;;6.47;2.08;;;17.70;85.10;;;;;;5042803;28;20905;-78
2022/07/08 05:59:41;;;;;;;5.45;1.70;;;17.90;84.20;;;;;;5057578;28;20111;-77
2022/07/08 06:02:07;;;;;;;5.88;1.63;;;17.90;83.50;;;;;;5033699;28;20116;-77
2022/07/08 06:04:32;;;;;;;11.43;1.80;;;18.00;83.90;;;;;;5054002;28;20052;-78
2022/07/08 06:06:58;;;;;;;7.78;2.00;;;17.90;83.80;;;;;;5040257;28;20060;-75
2022/07/08 06:09:24;;;;;;;4.88;1.52;;;18.00;83.70;;;;;;5035150;28;20083;-76
2022/07/08 06:11:50;;;;;;;4.38;1.65;;;17.90;83.50;;;;;;5051830;28;20027;-75
2022/07/08 06:14:16;;;;;;;7.10;1.70;;;18.20;83.60;;;;;;5034780;28;20025;-76
2022/07/08 06:16:42;;;;;;;10.43;1.75;;;18.30;83.00;;;;;;5051170;28;20480;-80
2022/07/08 06:19:10;;;;;;;5.03;1.75;;;18.50;81.20;;;;;;5056760;28;20024;-77
2022/07/08 06:21:36;;;;;;;6.53;1.83;;;18.50;79.70;;;;;;5044337;28;20033;-79
2022/07/08 06:24:02;;;;;;;6.82;2.03;;;18.50;80.00;;;;;;5063076;28;20047;-77
2022/07/08 06:26:27;;;;;;;6.68;1.70;;;18.40;80.30;;;;;;5052603;28;20439;-77
2022/07/08 06:28:53;;;;;;;13.13;1.95;;;18.30;80.10;;;;;;5052380;28;20040;-76
2022/07/08 06:31:19;;;;;;;7.38;1.90;;;18.00;80.00;;;;;;5040191;28;20113;-77
2022/07/08 06:33:44;;;;;;;6.70;1.80;;;17.90;80.40;;;;;;5034174;28;20393;-76
2022/07/08 06:36:10;;;;;;;4.50;1.75;;;17.70;80.70;;;;;;5051796;28;20025;-77
2022/07/08 06:38:36;;;;;;;6.63;1.77;;;17.60;81.80;;;;;;5052063;28;20029;-76
2022/07/08 06:41:01;;;;;;;6.32;1.75;;;17.80;81.70;;;;;;5054884;28;20029;-77
2022/07/08 06:43:27;;;;;;;4.03;1.40;;;18.00;81.60;;;;;;5051882;28;20029;-77
2022/07/08 06:45:52;;;;;;;6.38;1.80;;;17.90;80.30;;;;;;5056179;28;20032;-77
2022/07/08 06:48:18;;;;;;;3.75;1.20;;;17.70;80.70;;;;;;5038925;28;20033;-76
2022/07/08 06:50:44;;;;;;;6.10;2.17;;;17.60;81.30;;;;;;5056583;28;20029;-75
2022/07/08 06:53:10;;;;;;;6.70;1.70;;;17.60;81.80;;;;;;5057064;28;20090;-77
2022/07/08 06:55:35;;;;;;;4.40;1.25;;;17.40;81.60;;;;;;5055284;28;20434;-77
2022/07/08 06:58:01;;;;;;;4.20;1.45;;;17.30;82.10;;;;;;5056071;28;20052;-77
2022/07/08 07:00:27;;;;;;;9.70;2.00;;;17.20;82.40;;;;;;5057023;28;20434;-77
2022/07/08 07:02:53;;;;;;;6.85;2.13;;;17.20;82.70;;;;;;5038653;28;20473;-77
2022/07/08 07:05:19;;;;;;;8.20;1.55;;;17.20;82.60;;;;;;5056725;28;20091;-77
2022/07/08 07:07:45;;;;;;;8.57;1.50;;;17.10;82.80;;;;;;5060418;28;20114;-77
2022/07/08 07:10:11;;;;;;;4.80;1.80;;;17.10;83.00;;;;;;5056455;28;20068;-77
2022/07/08 07:12:37;;;;;;;10.45;2.38;;;17.20;83.20;;;;;;5038657;28;20497;-76
2022/07/08 07:15:03;;;;;;;5.97;1.77;;;17.20;82.60;;;;;;5062234;28;20024;-77
2022/07/08 07:17:28;;;;;;;11.98;2.00;;;17.20;82.30;;;;;;5059340;28;20401;-78
2022/07/08 07:19:54;;;;;;;6.10;1.55;;;17.30;82.30;;;;;;5062399;28;20025;-77
2022/07/08 07:22:20;;;;;;;6.93;2.00;;;17.40;82.00;;;;;;5050012;28;20430;-77
2022/07/08 07:24:46;;;;;;;7.13;1.80;;;17.50;81.90;;;;;;5056124;28;20037;-77
2022/07/08 07:27:11;;;;;;;6.88;1.67;;;17.60;81.00;;;;;;5056537;28;20032;-77
2022/07/08 07:29:37;;;;;;;4.95;1.15;;;17.60;80.50;;;;;;5043525;28;20075;-78
2022/07/08 07:32:03;;;;;;;5.35;1.63;;;17.60;79.50;;;;;;5044933;28;20044;-80
2022/07/08 07:34:29;;;;;;;3.10;1.27;;;17.60;78.70;;;;;;5057472;28;20490;-79
2022/07/08 07:36:55;;;;;;;5.78;2.00;;;17.60;78.50;;;;;;5071374;28;20059;-79
2022/07/08 07:39:20;;;;;;;5.90;1.80;;;17.60;79.10;;;;;;5070390;28;20036;-79
2022/07/08 07:41:46;;;;;;;5.22;1.50;;;17.60;79.00;;;;;;5070298;28;20084;-78
2022/07/08 07:44:12;;;;;;;7.60;1.58;;;17.60;79.00;;;;;;5067054;28;20025;-79
2022/07/08 07:46:37;;;;;;;7.90;1.90;;;17.60;78.90;;;;;;5055481;28;20039;-79
2022/07/08 07:49:04;;;;;;;4.40;1.20;;;17.70;79.00;;;;;;5023693;28;20041;-79
2022/07/08 07:51:29;;;;;;;7.13;1.75;;;17.70;78.50;;;;;;5098131;28;20088;-79
2022/07/08 07:53:55;;;;;;;6.07;1.95;;;17.80;78.60;;;;;;5087934;28;20040;-79
2022/07/08 07:56:22;;;;;;;9.65;1.85;;;17.80;78.00;;;;;;5082445;28;20032;-79
2022/07/08 07:58:47;;;;;;;4.30;1.70;;;17.80;77.40;;;;;;5086838;28;20122;-78
2022/07/08 08:01:13;;;;;;;5.47;1.50;;;17.90;78.00;;;;;;5090365;28;20024;-79
2022/07/08 08:03:39;;;;;;;8.45;1.38;;;18.00;78.10;;;;;;5088767;28;20043;-80
2022/07/08 08:06:05;;;;;;;10.07;2.15;;;18.10;77.00;;;;;;5084427;28;20040;-79
2022/07/08 08:08:33;;;;;;;6.35;2.03;;;18.20;77.00;;;;;;5092717;28;20058;-79
2022/07/08 08:11:00;;;;;;;6.57;1.50;;;18.20;77.10;;;;;;5088982;28;20052;-78
2022/07/08 08:13:26;;;;;;;6.03;1.67;;;18.20;77.10;;;;;;5089844;28;20032;-78
2022/07/08 08:15:52;;;;;;;5.38;1.10;;;18.20;76.80;;;;;;5085755;28;20051;-80
2022/07/08 08:18:17;;;;;;;7.70;1.90;;;18.30;77.20;;;;;;5088922;28;20028;-79
2022/07/08 08:20:43;;;;;;;8.80;1.70;;;18.30;77.10;;;;;;5094290;28;20024;-79
2022/07/08 08:23:09;;;;;;;5.68;1.73;;;18.30;76.90;;;;;;5088317;28;20033;-80
2022/07/08 08:25:35;;;;;;;10.55;2.20;;;18.20;76.70;;;;;;5085037;28;20032;-79
2022/07/08 08:28:02;;;;;;;5.80;1.30;;;18.20;76.90;;;;;;5090746;28;20059;-79
2022/07/08 08:30:27;;;;;;;3.38;1.58;;;18.20;77.00;;;;;;5081447;28;20028;-78
2022/07/08 08:32:53;;;;;;;5.35;1.67;;;18.40;77.00;;;;;;5085921;28;20036;-79
2022/07/08 08:35:19;;;;;;;7.47;1.52;;;18.50;76.80;;;;;;5072218;28;20029;-79
2022/07/08 08:37:44;;;;;;;5.72;1.75;;;18.40;76.70;;;;;;5076535;28;20025;-78
2022/07/08 08:40:11;;;;;;;6.18;1.45;;;18.40;76.70;;;;;;5087818;28;20020;-79
2022/07/08 08:42:38;;;;;;;6.72;1.60;;;18.30;76.70;;;;;;5073097;28;20042;-80
2022/07/08 08:45:05;;;;;;;5.97;1.52;;;18.40;77.60;;;;;;5089389;28;20032;-79
2022/07/08 08:47:32;;;;;;;4.65;1.50;;;18.40;77.10;;;;;;5072982;28;20023;-79
2022/07/08 08:52:49;;;;;;;7.82;2.60;;;18.40;76.30;;;;;;5087359;28;20047;-79
2022/07/08 08:55:29;;;;;;;9.15;2.28;;;18.20;76.60;;;;;;5078957;28;20392;-79
2022/07/08 08:58:05;;;;;;;5.15;2.33;;;18.10;76.80;;;;;;5090877;28;20025;-78
2022/07/08 09:00:33;;;;;;;5.03;1.35;;;18.10;77.30;;;;;;5085462;28;20024;-79
2022/07/08 09:02:59;;;;;;;7.28;2.10;;;18.10;77.60;;;;;;5091001;28;20035;-78
2022/07/08 09:05:26;;;;;;;11.15;1.85;;;18.10;77.70;;;;;;5087364;28;20036;-77
2022/07/08 09:07:53;;;;;;;6.32;1.90;;;18.00;78.60;;;;;;5088045;28;20056;-77
2022/07/08 09:10:19;;;;;;;10.50;2.22;;;18.00;78.00;;;;;;5066593;28;20042;-78
2022/07/08 09:13:01;;;;;;;5.25;1.70;;;18.00;78.20;;;;;;5071487;28;20021;-78
2022/07/08 09:15:31;;;;;;;10.07;2.05;;;18.20;78.10;;;;;;5088183;28;20082;-77
2022/07/08 09:17:59;;;;;;;4.68;1.92;;;18.20;76.60;;;;;;5080483;28;20033;-78
2022/07/08 09:20:25;;;;;;;7.85;1.60;;;18.40;76.30;;;;;;5085361;28;20032;-78
2022/07/08 09:22:50;;;;;;;5.40;1.92;;;18.40;76.40;;;;;;5076724;28;20032;-78
2022/07/08 09:25:16;;;;;;;3.50;1.65;;;18.50;76.40;;;;;;5073392;28;20089;-76
2022/07/08 09:27:42;;;;;;;6.75;1.63;;;18.50;75.80;;;;;;5071718;28;20628;-74
2022/07/08 09:30:08;;;;;;;5.32;1.85;;;18.50;76.00;;;;;;5072510;28;20385;-74
2022/07/08 09:32:35;;;;;;;6.68;1.80;;;18.60;76.20;;;;;;5070556;28;20025;-75
2022/07/08 09:35:01;;;;;;;6.57;1.45;;;18.60;76.10;;;;;;5079773;28;20366;-74
2022/07/08 09:37:31;;;;;;;6.20;1.40;;;18.70;74.90;;;;;;5071823;28;20029;-75
2022/07/08 09:39:57;;;;;;;4.43;1.25;;;18.80;74.10;;;;;;5058661;28;20460;-75
2022/07/08 09:42:22;;;;;;;7.05;1.40;;;18.80;74.30;;;;;;5072140;28;20029;-74
2022/07/08 09:44:52;;;;;;;3.88;1.58;;;18.80;73.90;;;;;;5072589;28;20025;-75
2022/07/08 09:47:18;;;;;;;4.88;1.40;;;18.80;73.80;;;;;;5071428;28;20392;-74
2022/07/08 09:49:45;;;;;;;8.75;1.83;;;18.90;73.60;;;;;;5073036;28;20020;-74
2022/07/08 09:52:22;;;;;;;5.05;1.63;;;18.80;73.90;;;;;;5070922;28;20019;-74
2022/07/08 09:55:03;;;;;;;7.40;1.75;;;18.70;74.70;;;;;;5079234;28;20020;-76
2022/07/08 09:57:29;;;;;;;4.00;1.48;;;18.70;74.50;;;;;;5043668;28;20027;-75
2022/07/08 09:59:56;;;;;;;4.60;1.67;;;18.70;73.90;;;;;;5072391;28;20040;-75
2022/07/08 10:02:21;;;;;;;10.15;2.25;;;18.70;73.60;;;;;;5072287;28;20039;-75
2022/07/08 10:04:51;;;;;;;3.35;1.55;;;18.80;73.80;;;;;;5037984;28;20036;-75
2022/07/08 10:07:17;;;;;;;4.07;1.90;;;18.80;73.90;;;;;;5072285;28;20039;-75
2022/07/08 10:09:42;;;;;;;5.82;1.63;;;18.90;73.50;;;;;;5072260;28;20020;-76
2022/07/08 10:12:13;;;;;;;6.55;1.77;;;18.90;73.90;;;;;;5054402;28;20020;-76
2022/07/08 10:14:39;;;;;;;5.82;1.58;;;19.00;74.30;;;;;;5072796;28;20016;-75
2022/07/08 10:17:10;;;;;;;6.15;1.77;;;19.00;73.70;;;;;;5072215;28;20028;-75
2022/07/08 10:19:38;;;;;;;6.40;1.80;;;19.00;74.30;;;;;;5073396;28;20109;-75
2022/07/08 10:22:07;;;;;;;6.05;1.52;;;19.00;73.90;;;;;;5076311;28;20021;-75
2022/07/08 10:24:39;;;;;;;4.78;1.73;;;19.00;73.30;;;;;;5057994;28;20112;-75
2022/07/08 10:27:05;;;;;;;5.70;1.45;;;19.10;73.60;;;;;;5075480;28;20020;-76
2022/07/08 10:29:33;;;;;;;4.00;1.15;;;19.20;73.50;;;;;;5059272;28;20033;-76
2022/07/08 10:32:00;;;;;;;5.57;1.40;;;19.20;73.10;;;;;;5076177;28;20052;-77
2022/07/08 10:34:31;;;;;;;5.47;1.42;;;19.20;73.30;;;;;;5074688;28;20033;-76
2022/07/08 10:36:57;;;;;;;4.70;1.65;;;19.20;72.80;;;;;;5075690;28;20043;-76
2022/07/08 10:39:28;;;;;;;3.67;1.88;;;19.20;73.10;;;;;;5075693;28;20032;-76
2022/07/08 10:42:00;;;;;;;3.60;1.20;;;19.20;72.70;;;;;;5075870;28;20103;-76
2022/07/08 10:44:44;;;;;;;7.25;1.75;;;19.20;72.80;;;;;;5072753;28;20040;-76
2022/07/08 10:47:11;;;;;;;5.30;1.90;;;19.20;72.80;;;;;;5066116;28;20028;-76
2022/07/08 10:49:41;;;;;;;5.03;1.40;;;19.20;73.10;;;;;;5073963;28;20024;-76
2022/07/08 10:52:07;;;;;;;5.50;1.40;;;19.30;72.60;;;;;;5075572;28;20036;-77
2022/07/08 10:54:39;;;;;;;7.35;1.80;;;19.30;72.50;;;;;;5075444;28;20013;-76
2022/07/08 10:57:16;;;;;;;4.53;1.20;;;19.30;71.90;;;;;;5060935;28;20029;-76
2022/07/08 11:00:06;;;;;;;10.05;2.20;;;19.30;71.50;;;;;;5055924;28;20017;-76
2022/07/08 11:02:32;;;;;;;4.88;1.77;;;19.20;71.50;;;;;;5071603;28;20449;-76
2022/07/08 11:04:58;;;;;;;5.90;1.40;;;19.30;71.70;;;;;;5075183;28;20481;-76
2022/07/08 11:07:26;;;;;;;3.85;1.75;;;19.30;71.70;;;;;;5085379;28;20017;-77
2022/07/08 11:09:57;;;;;;;5.63;1.70;;;19.30;71.80;;;;;;5070793;28;20056;-76
2022/07/08 11:12:28;;;;;;;3.33;1.60;;;19.30;71.70;;;;;;5074887;28;20052;-76
2022/07/08 11:14:56;;;;;;;8.63;1.70;;;19.30;71.70;;;;;;5091663;28;20029;-77
2022/07/08 11:17:23;;;;;;;8.50;1.70;;;19.20;72.10;;;;;;5053467;28;20032;-77
2022/07/08 11:19:51;;;;;;;5.72;2.08;;;19.10;71.90;;;;;;5073814;28;20126;-77
2022/07/08 11:22:18;;;;;;;9.18;2.03;;;19.20;72.40;;;;;;5069434;28;20052;-76
2022/07/08 11:24:45;;;;;;;11.80;2.78;;;19.30;72.00;;;;;;5070446;28;20106;-76
2022/07/08 11:27:11;;;;;;;5.78;1.60;;;19.30;71.40;;;;;;5072351;28;20031;-73
2022/07/08 11:29:44;;;;;;;8.75;2.00;;;19.30;71.40;;;;;;5075122;28;20037;-76
2022/07/08 11:32:10;;;;;;;6.93;1.70;;;19.40;71.40;;;;;;5073256;28;20451;-76
2022/07/08 11:34:36;;;;;;;4.72;1.48;;;19.40;71.40;;;;;;5074824;28;20048;-76
2022/07/08 11:37:02;;;;;;;3.20;1.20;;;19.50;71.40;;;;;;5073528;28;20052;-77
2022/07/08 11:39:28;;;;;;;10.75;1.67;;;19.50;71.20;;;;;;5072977;28;20050;-76
2022/07/08 11:41:54;;;;;;;3.67;1.25;;;19.50;71.20;;;;;;5066416;28;20025;-76
2022/07/08 11:44:21;;;;;;;3.42;1.40;;;19.40;71.10;;;;;;5077939;28;20048;-77
2022/07/08 11:46:48;;;;;;;5.82;1.33;;;19.50;71.40;;;;;;5078018;28;20017;-78
2022/07/08 11:49:15;;;;;;;6.65;1.70;;;19.50;71.40;;;;;;5059159;28;20119;-78
2022/07/08 11:51:48;;;;;;;5.35;1.20;;;19.50;71.50;;;;;;5080892;28;20493;-78
2022/07/08 11:54:14;;;;;;;6.22;2.28;;;19.50;71.20;;;;;;5076982;28;20048;-78
2022/07/08 11:56:40;;;;;;;5.90;1.52;;;19.50;71.70;;;;;;5058167;28;20044;-77
2022/07/08 11:59:06;;;;;;;3.47;1.55;;;19.50;71.10;;;;;;5043768;28;20024;-76
2022/07/08 12:01:33;;;;;;;4.70;1.27;;;19.60;71.10;;;;;;5064332;28;20043;-77
2022/07/08 12:03:59;;;;;;;7.38;1.52;;;19.60;71.00;;;;;;5072615;28;20028;-77
2022/07/08 12:06:26;;;;;;;9.25;2.50;;;19.60;71.30;;;;;;5075809;28;20024;-77
2022/07/08 12:08:53;;;;;;;9.23;1.58;;;19.60;71.00;;;;;;5075181;28;20021;-77
2022/07/08 12:11:21;;;;;;;5.72;1.95;;;19.60;71.30;;;;;;5076159;28;20128;-79
2022/07/08 12:13:49;;;;;;;6.47;1.83;;;19.60;71.30;;;;;;5056947;28;20450;-78
2022/07/08 12:16:32;;;;;;;4.40;1.50;;;19.70;71.30;;;;;;5044097;28;20048;-77
2022/07/08 12:18:59;;;;;;;7.00;1.50;;;19.70;70.70;;;;;;5075317;28;20035;-78
2022/07/08 12:21:25;;;;;;;6.40;1.73;;;19.70;71.00;;;;;;5075602;28;20034;-79
2022/07/08 12:24:01;;;;;;;7.82;1.65;;;19.80;70.30;;;;;;5037269;28;20395;-77
2022/07/08 12:26:27;;;;;;;4.38;1.60;;;19.80;70.30;;;;;;5056995;28;20485;-78
2022/07/08 12:28:53;;;;;;;5.35;1.25;;;19.90;70.30;;;;;;5040274;28;20051;-77
2022/07/08 12:31:40;;;;;;;5.70;1.83;;;19.90;70.00;;;;;;5056839;28;20545;-79
2022/07/08 12:34:07;;;;;;;3.53;1.30;;;19.90;70.30;;;;;;5065837;28;20019;-78
2022/07/08 12:36:34;;;;;;;5.07;1.30;;;19.80;69.90;;;;;;5074998;28;20032;-78
2022/07/08 12:39:16;;;;;;;9.73;2.22;;;19.80;70.30;;;;;;5074128;28;20024;-77
2022/07/08 12:41:45;;;;;;;2.78;1.50;;;19.80;70.20;;;;;;5089139;28;20028;-77
2022/07/08 12:44:29;;;;;;;8.32;1.30;;;19.80;70.10;;;;;;5035915;28;20041;-77
2022/07/08 12:46:56;;;;;;;5.32;1.45;;;19.80;70.30;;;;;;5053811;28;20469;-77
2022/07/08 12:49:29;;;;;;;5.32;1.60;;;19.90;70.50;;;;;;5035872;28;20055;-77